Time;durP1;ratioP1;P1;durP2;ratioP2;P2;SDS_P1;SDS_P2;PMS_P1;PMS_P2;Temp;Humidity;BMP_temperature;BMP_pressure;BME280_temperature;BME280_humidity;BME280_pressure;Samples;Min_cycle;Max_cycle;Signal;HPM_P1;HPM_P2
2022/11/04 00:01:56;;;;;;;7.93;5.10;;;10.00;4.80;;;;;;5035240;28;20678;-81
2022/11/04 00:04:24;;;;;;;5.90;4.40;;;9.90;14.20;;;;;;5051985;28;20198;-81
2022/11/04 00:06:51;;;;;;;6.07;4.60;;;9.90;2.60;;;;;;5034207;28;20607;-79
2022/11/04 00:09:22;;;;;;;5.87;4.83;;;9.80;2.80;;;;;;5035544;28;20265;-82
2022/11/04 00:14:33;;;;;;;6.97;4.57;;;10.30;1.00;;;;;;5037468;28;20244;-84
2022/11/04 00:17:18;;;;;;;5.93;4.50;;;9.90;1.00;;;;;;5034390;28;20206;-81
2022/11/04 00:30:56;;;;;;;8.37;4.50;;;10.00;1.00;;;;;;5035458;28;20190;-81
2022/11/04 00:33:25;;;;;;;7.47;4.90;;;10.20;1.00;;;;;;5035939;28;20705;-81
2022/11/04 00:35:53;;;;;;;7.70;5.20;;;9.90;1.00;;;;;;5042192;28;20293;-82
2022/11/04 00:38:18;;;;;;;8.17;4.90;;;9.90;1.00;;;;;;5043081;28;20182;-81
2022/11/04 00:40:44;;;;;;;6.83;5.07;;;11.10;1.00;;;;;;5039657;28;20265;-81
2022/11/04 00:43:10;;;;;;;6.43;4.67;;;9.90;1.00;;;;;;5037717;28;20693;-80
2022/11/04 00:45:36;;;;;;;6.80;5.03;;;10.20;1.00;;;;;;5046099;28;20588;-83
2022/11/04 00:48:01;;;;;;;8.30;4.83;;;10.00;1.00;;;;;;5046441;28;20179;-81
2022/11/04 00:50:27;;;;;;;6.87;4.70;;;9.90;1.00;;;;;;5039501;28;20726;-82
2022/11/04 00:53:03;;;;;;;5.30;4.47;;;9.90;1.00;;;;;;5037916;28;20178;-80
2022/11/04 00:55:28;;;;;;;8.13;5.10;;;10.00;1.00;;;;;;5038815;28;20213;-81
2022/11/04 00:57:54;;;;;;;8.33;5.10;;;9.90;1.00;;;;;;5037021;28;20618;-83
2022/11/04 01:00:20;;;;;;;6.50;5.10;;;10.80;1.00;;;;;;5045820;28;20761;-79
2022/11/04 01:02:46;;;;;;;7.47;4.77;;;9.90;1.00;;;;;;5037970;28;20194;-81
2022/11/04 01:05:12;;;;;;;6.03;4.83;;;10.20;1.00;;;;;;5038884;28;20197;-82
2022/11/04 01:07:38;;;;;;;7.53;4.70;;;9.90;1.00;;;;;;5039410;28;20235;-82
2022/11/04 01:10:05;;;;;;;5.97;4.87;;;10.10;1.00;;;;;;5045999;28;20191;-80
2022/11/04 01:12:31;;;;;;;6.83;5.07;;;9.90;1.00;;;;;;5039047;28;20193;-80
2022/11/04 01:14:56;;;;;;;7.13;4.77;;;10.10;1.00;;;;;;5046092;28;20560;-81
2022/11/04 01:17:22;;;;;;;6.30;5.30;;;9.90;1.00;;;;;;5038200;28;20214;-82
2022/11/04 01:19:48;;;;;;;8.97;5.70;;;10.50;1.00;;;;;;5044469;28;20186;-80
2022/11/04 01:22:13;;;;;;;9.23;5.80;;;9.70;1.10;;;;;;5037888;28;20198;-80
2022/11/04 01:24:39;;;;;;;8.43;5.37;;;9.90;3.90;;;;;;5039737;28;20229;-81
2022/11/04 01:27:05;;;;;;;7.47;5.73;;;10.70;6.90;;;;;;5038578;28;20728;-80
2022/11/04 01:29:30;;;;;;;8.03;5.50;;;9.90;4.80;;;;;;5039526;28;20189;-83
2022/11/04 01:31:56;;;;;;;7.50;5.73;;;10.20;6.80;;;;;;5037295;28;20639;-79
2022/11/04 01:34:21;;;;;;;10.10;6.13;;;10.10;7.30;;;;;;5046174;28;20249;-85
2022/11/04 01:36:47;;;;;;;7.90;5.50;;;9.80;13.70;;;;;;5038239;28;21121;-81
2022/11/04 01:39:13;;;;;;;9.43;5.80;;;9.90;16.10;;;;;;5041317;28;20182;-81
2022/11/04 01:41:39;;;;;;;9.20;5.67;;;10.50;17.00;;;;;;5046688;28;20192;-81
2022/11/04 01:44:42;;;;;;;8.60;5.63;;;9.90;15.50;;;;;;5040627;28;20178;-81
2022/11/04 01:47:16;;;;;;;6.67;5.00;;;9.80;18.30;;;;;;5037598;28;20209;-80
2022/11/04 01:49:43;;;;;;;9.23;5.73;;;9.80;19.90;;;;;;5038672;28;20720;-81
2022/11/04 01:52:18;;;;;;;8.27;5.57;;;10.00;17.90;;;;;;5037218;28;20190;-81
2022/11/04 01:54:47;;;;;;;7.53;5.43;;;9.80;12.90;;;;;;5037692;28;20193;-83
2022/11/04 01:57:18;;;;;;;6.27;5.37;;;9.70;15.40;;;;;;5037786;28;20221;-80
2022/11/04 01:59:44;;;;;;;7.93;5.70;;;9.90;14.70;;;;;;5039716;28;20201;-80
2022/11/04 02:02:10;;;;;;;7.57;4.77;;;9.90;15.90;;;;;;5045604;28;20190;-81
2022/11/04 02:04:37;;;;;;;6.83;5.00;;;10.20;43.30;;;;;;5046325;28;20205;-83
2022/11/04 02:07:06;;;;;;;7.23;5.70;;;9.90;24.00;;;;;;5054281;28;20206;-82
2022/11/04 02:09:33;;;;;;;6.23;5.20;;;9.80;44.40;;;;;;5038269;28;20697;-82
2022/11/04 02:14:44;;;;;;;9.10;6.10;;;10.60;88.50;;;;;;5040073;28;20278;-81
2022/11/04 02:17:22;;;;;;;7.27;5.50;;;10.00;92.50;;;;;;5039337;28;20214;-82
2022/11/04 02:20:16;;;;;;;7.97;5.53;;;10.30;99.90;;;;;;5040083;28;20179;-82
2022/11/04 02:23:10;;;;;;;7.67;5.57;;;9.90;99.90;;;;;;5039371;28;20201;-80
2022/11/04 02:25:58;;;;;;;8.03;5.57;;;9.90;99.90;;;;;;5041403;28;20178;-83
2022/11/04 02:29:01;;;;;;;7.87;5.87;;;9.90;99.90;;;;;;5046480;28;20190;-81
2022/11/04 02:31:32;;;;;;;7.30;4.83;;;9.90;99.90;;;;;;5040258;28;20237;-80
2022/11/04 02:34:39;;;;;;;8.73;5.63;;;9.90;99.90;;;;;;5037103;28;20182;-79
2022/11/04 02:37:13;;;;;;;5.70;4.53;;;9.90;99.90;;;;;;4984072;28;21015;-80
2022/11/04 02:40:19;;;;;;;5.13;4.63;;;9.90;99.90;;;;;;5037717;28;20236;-81
2022/11/04 02:42:57;;;;;;;4.70;4.00;;;10.00;99.90;;;;;;5044573;28;20186;-82
2022/11/04 02:45:49;;;;;;;6.83;4.20;;;10.00;99.90;;;;;;5037630;28;20292;-80
2022/11/04 02:48:34;;;;;;;3.97;3.27;;;10.20;99.90;;;;;;5044215;28;20836;-82
2022/11/04 02:51:09;;;;;;;6.03;4.07;;;10.20;99.90;;;;;;5051983;28;20186;-83
2022/11/04 02:53:54;;;;;;;3.87;3.57;;;10.30;99.90;;;;;;5044301;28;20190;-81
2022/11/04 02:56:21;;;;;;;3.53;2.93;;;10.30;99.90;;;;;;5038357;28;20689;-80
2022/11/04 02:59:00;;;;;;;6.17;3.93;;;10.60;1.00;;;;;;5054326;28;20201;-79
2022/11/04 03:01:31;;;;;;;5.10;3.40;;;10.40;99.90;;;;;;5038544;28;20189;-80
2022/11/04 03:04:05;;;;;;;4.03;3.33;;;10.90;99.90;;;;;;5037156;28;20975;-80
2022/11/04 03:06:32;;;;;;;3.10;2.80;;;10.50;1.00;;;;;;5044793;28;20207;-79
2022/11/04 03:09:00;;;;;;;3.30;3.00;;;10.50;1.00;;;;;;5044523;28;20659;-82
2022/11/04 03:11:27;;;;;;;3.63;3.20;;;11.10;1.00;;;;;;5035557;28;20209;-80
2022/11/04 03:14:02;;;;;;;4.63;3.17;;;10.40;1.00;;;;;;5035285;28;20191;-82
2022/11/04 03:16:51;;;;;;;2.90;2.63;;;10.40;1.00;;;;;;5033900;28;20295;-81
2022/11/04 03:19:33;;;;;;;5.30;3.27;;;10.40;99.90;;;;;;5024432;28;21135;-82
2022/11/04 03:22:21;;;;;;;3.47;3.10;;;10.40;1.00;;;;;;5049539;28;20182;-79
2022/11/04 03:24:48;;;;;;;3.20;2.77;;;10.30;1.00;;;;;;5037376;28;20262;-79
2022/11/04 03:27:38;;;;;;;5.87;3.40;;;10.40;1.00;;;;;;5042992;28;20226;-79
2022/11/04 03:30:11;;;;;;;3.20;2.70;;;10.40;1.00;;;;;;5032814;28;20661;-79
2022/11/04 03:32:46;;;;;;;3.27;2.80;;;10.40;1.00;;;;;;5034794;28;20595;-83
2022/11/04 03:35:15;;;;;;;2.93;2.63;;;10.50;1.00;;;;;;5051803;28;20748;-79
2022/11/04 03:37:41;;;;;;;3.10;2.80;;;10.40;1.00;;;;;;5035972;28;20210;-82
2022/11/04 03:40:08;;;;;;;3.30;3.00;;;10.40;1.00;;;;;;5036076;28;20183;-83
2022/11/04 03:42:38;;;;;;;3.33;3.03;;;10.50;1.00;;;;;;5043184;28;20191;-81
2022/11/04 03:45:05;;;;;;;3.00;2.70;;;11.10;1.00;;;;;;5051235;28;20273;-80
2022/11/04 03:47:31;;;;;;;4.07;2.77;;;10.50;1.00;;;;;;5035596;28;20209;-85
2022/11/04 03:50:08;;;;;;;3.03;2.73;;;10.90;1.00;;;;;;5043144;28;20596;-80
2022/11/04 03:52:35;;;;;;;3.37;3.07;;;10.60;1.00;;;;;;5037290;28;20243;-79
2022/11/04 03:55:01;;;;;;;3.23;2.93;;;10.80;9.40;;;;;;5037874;28;20182;-84
2022/11/04 03:57:49;;;;;;;4.03;2.93;;;10.80;1.00;;;;;;5033439;28;20225;-79
2022/11/04 04:00:19;;;;;;;2.60;2.40;;;10.80;1.00;;;;;;5036823;28;20194;-81
2022/11/04 04:02:48;;;;;;;3.43;2.90;;;11.30;1.00;;;;;;5037820;28;20667;-81
2022/11/04 04:05:25;;;;;;;3.23;2.90;;;10.90;1.00;;;;;;5049807;28;20195;-82
2022/11/04 04:07:54;;;;;;;3.43;3.00;;;10.90;1.00;;;;;;5034974;28;20236;-80
2022/11/04 04:11:01;;;;;;;2.63;2.43;;;11.00;1.00;;;;;;5036038;28;20260;-80
2022/11/04 04:13:42;;;;;;;3.37;2.50;;;11.00;99.90;;;;;;4955623;28;20677;-86
2022/11/04 04:16:14;;;;;;;3.00;2.60;;;11.00;99.90;;;;;;5028257;28;20214;-78
2022/11/04 04:18:47;;;;;;;3.07;2.80;;;11.00;99.90;;;;;;5035781;28;20281;-81
2022/11/04 04:21:19;;;;;;;4.33;2.80;;;11.00;99.90;;;;;;5035080;28;20189;-80
2022/11/04 04:29:20;;;;;;;3.53;2.63;;;10.80;1.00;;;;;;5035415;28;20196;-80
2022/11/04 04:31:48;;;;;;;4.37;2.90;;;10.70;99.90;;;;;;5033054;28;20287;-83
2022/11/04 04:34:25;;;;;;;3.50;2.67;;;10.70;99.90;;;;;;5037071;28;20178;-82
2022/11/04 04:37:05;;;;;;;2.77;2.57;;;10.70;1.00;;;;;;5052859;28;20210;-83
2022/11/04 04:45:08;;;;;;;3.13;2.83;;;10.60;1.00;;;;;;5035707;28;20221;-84
2022/11/04 04:47:43;;;;;;;2.93;2.73;;;10.60;1.00;;;;;;5034392;28;20213;-80
2022/11/04 04:50:12;;;;;;;3.43;2.67;;;10.50;1.00;;;;;;5037409;28;20189;-83
2022/11/04 04:52:41;;;;;;;3.67;2.60;;;10.50;1.00;;;;;;5033830;28;20618;-82
2022/11/04 04:55:07;;;;;;;2.33;2.13;;;10.50;1.00;;;;;;5036216;28;20244;-82
2022/11/04 04:57:33;;;;;;;2.50;2.30;;;10.40;1.00;;;;;;5042959;28;20638;-79
2022/11/04 04:59:59;;;;;;;2.60;2.07;;;10.40;1.00;;;;;;5043418;28;20178;-80
2022/11/04 05:02:24;;;;;;;1.90;1.80;;;10.40;99.90;;;;;;5034252;28;20218;-81
2022/11/04 05:04:50;;;;;;;2.07;1.87;;;10.80;99.90;;;;;;5042769;28;20560;-82
2022/11/04 05:07:15;;;;;;;2.40;1.63;;;10.50;99.90;;;;;;5034040;28;20209;-82
2022/11/04 05:09:41;;;;;;;2.43;1.60;;;10.20;99.90;;;;;;5034182;28;20274;-83
2022/11/04 05:12:07;;;;;;;1.83;1.67;;;10.30;99.90;;;;;;5035097;28;20535;-82
2022/11/04 05:14:32;;;;;;;2.37;1.70;;;10.70;99.90;;;;;;5043054;28;20199;-79
2022/11/04 05:16:58;;;;;;;1.63;1.53;;;11.20;99.90;;;;;;5042623;28;20211;-85
2022/11/04 05:19:24;;;;;;;1.87;1.63;;;10.50;99.90;;;;;;5051264;28;20186;-84
2022/11/04 05:21:49;;;;;;;1.40;1.30;;;10.10;99.90;;;;;;5034389;28;20182;-81
2022/11/04 05:24:15;;;;;;;1.73;1.37;;;10.10;99.90;;;;;;5035004;28;20197;-78
2022/11/04 05:26:40;;;;;;;1.37;1.27;;;10.20;99.90;;;;;;5046248;28;20217;-84
2022/11/04 05:29:06;;;;;;;1.50;1.40;;;10.80;99.90;;;;;;5046435;28;21020;-80
2022/11/04 05:31:32;;;;;;;1.50;1.30;;;10.30;99.90;;;;;;5045971;28;20185;-80
2022/11/04 05:33:58;;;;;;;1.30;1.20;;;10.70;99.90;;;;;;5039554;28;20208;-80
2022/11/04 05:36:24;;;;;;;1.73;1.10;;;10.50;99.90;;;;;;5038991;28;20253;-79
2022/11/04 05:38:51;;;;;;;1.00;1.00;;;10.80;99.90;;;;;;5038426;28;20182;-82
2022/11/04 05:41:27;;;;;;;1.37;1.27;;;10.00;94.40;;;;;;5038631;28;20194;-82
2022/11/04 05:43:55;;;;;;;1.23;1.13;;;11.20;92.80;;;;;;5045464;28;20210;-80
2022/11/04 05:46:21;;;;;;;1.40;1.30;;;10.80;65.60;;;;;;5038762;28;20203;-80
2022/11/04 05:48:47;;;;;;;1.30;1.20;;;10.10;43.90;;;;;;5046111;28;20182;-81
2022/11/04 05:51:17;;;;;;;2.00;1.60;;;10.60;40.40;;;;;;5039600;28;20202;-81
2022/11/04 05:53:43;;;;;;;1.33;1.23;;;10.00;31.40;;;;;;5036908;28;20178;-82
2022/11/04 05:56:08;;;;;;;1.83;1.30;;;9.90;35.60;;;;;;5039137;28;20213;-78
2022/11/04 05:58:35;;;;;;;1.90;1.33;;;9.90;30.10;;;;;;5037271;28;20186;-80
2022/11/04 06:01:23;;;;;;;3.00;2.50;;;10.10;46.40;;;;;;5038479;28;20182;-83
2022/11/04 06:03:50;;;;;;;8.83;6.10;;;9.80;25.70;;;;;;5037064;28;20397;-82
2022/11/04 06:06:16;;;;;;;11.50;6.30;;;9.80;27.30;;;;;;5036602;28;20766;-81
2022/11/04 06:08:41;;;;;;;14.77;7.70;;;9.90;50.40;;;;;;5034539;28;20296;-80
2022/11/04 06:11:07;;;;;;;13.67;7.63;;;9.70;37.70;;;;;;5035389;28;20179;-79
2022/11/04 06:13:32;;;;;;;16.87;9.03;;;9.70;41.30;;;;;;5042965;28;20277;-82
2022/11/04 06:15:58;;;;;;;16.13;9.13;;;10.00;50.90;;;;;;5043587;28;20234;-80
2022/11/04 06:18:24;;;;;;;16.67;9.13;;;10.00;65.00;;;;;;5036731;28;20187;-85
2022/11/04 06:20:49;;;;;;;17.13;10.20;;;9.40;77.60;;;;;;5036469;28;20593;-80
2022/11/04 06:23:15;;;;;;;14.93;8.10;;;9.70;92.40;;;;;;5038003;28;20186;-81
2022/11/04 06:25:40;;;;;;;7.80;4.80;;;9.60;99.90;;;;;;5036266;28;20632;-80
2022/11/04 06:28:06;;;;;;;13.43;7.43;;;10.20;99.90;;;;;;5045135;28;20666;-86
2022/11/04 06:30:31;;;;;;;30.37;16.87;;;9.60;99.90;;;;;;5037393;28;20191;-79
2022/11/04 06:32:57;;;;;;;26.77;14.33;;;9.50;99.90;;;;;;5037272;28;20178;-82
2022/11/04 06:35:22;;;;;;;20.07;10.77;;;9.20;99.90;;;;;;5036859;28;20681;-81
2022/11/04 06:37:48;;;;;;;24.33;13.07;;;9.20;99.90;;;;;;5037913;28;20233;-81
2022/11/04 06:40:14;;;;;;;22.67;13.20;;;9.50;99.90;;;;;;5035004;28;20190;-81
2022/11/04 06:42:41;;;;;;;32.33;17.57;;;9.20;99.90;;;;;;5037609;28;20193;-80
2022/11/04 06:45:07;;;;;;;28.90;16.03;;;10.50;99.90;;;;;;5044524;28;20190;-81
2022/11/04 06:47:33;;;;;;;15.30;8.83;;;9.10;99.90;;;;;;5035626;28;20748;-79
2022/11/04 06:49:58;;;;;;;10.67;5.90;;;9.40;99.90;;;;;;5038054;28;20242;-82
2022/11/04 06:52:24;;;;;;;3.80;2.73;;;9.00;99.90;;;;;;5035904;28;20352;-81
2022/11/04 06:54:50;;;;;;;4.43;3.00;;;9.30;99.90;;;;;;5035101;28;20182;-82
2022/11/04 06:57:15;;;;;;;8.30;4.90;;;9.10;99.90;;;;;;5034122;28;20225;-83
2022/11/04 06:59:41;;;;;;;5.17;3.80;;;9.10;99.90;;;;;;5036109;28;20566;-83
2022/11/04 07:02:11;;;;;;;4.77;2.73;;;9.40;99.90;;;;;;5042065;28;20311;-80
2022/11/04 07:04:37;;;;;;;3.00;2.70;;;9.10;99.90;;;;;;5034227;28;20907;-81
2022/11/04 07:07:03;;;;;;;2.50;2.30;;;9.10;99.90;;;;;;5036262;28;20206;-81
2022/11/04 07:09:28;;;;;;;5.83;4.93;;;10.40;99.90;;;;;;5036323;28;20190;-83
2022/11/04 07:11:54;;;;;;;4.17;3.73;;;9.20;99.90;;;;;;5034620;28;20233;-81
2022/11/04 07:14:19;;;;;;;1.90;1.80;;;9.20;99.90;;;;;;5044261;28;20182;-82
2022/11/04 07:16:49;;;;;;;1.50;1.40;;;9.20;99.90;;;;;;5036950;28;20325;-83
2022/11/04 07:19:14;;;;;;;2.70;2.20;;;10.60;99.90;;;;;;5036542;28;20215;-78
2022/11/04 07:21:40;;;;;;;2.73;2.07;;;9.90;99.90;;;;;;5037705;28;20206;-82
2022/11/04 07:24:06;;;;;;;2.30;1.87;;;9.70;99.90;;;;;;5052164;28;20190;-80
2022/11/04 07:26:31;;;;;;;3.07;1.80;;;9.50;94.10;;;;;;5036788;28;20198;-82
2022/11/04 07:28:59;;;;;;;2.57;2.00;;;9.50;90.30;;;;;;5035113;28;20190;-80
2022/11/04 07:31:25;;;;;;;2.53;1.50;;;9.50;92.40;;;;;;5044582;28;20216;-80
2022/11/04 07:33:52;;;;;;;2.57;1.90;;;10.00;90.70;;;;;;5037029;28;20178;-85
2022/11/04 07:36:18;;;;;;;2.03;1.53;;;9.60;81.10;;;;;;5035645;28;20206;-82
2022/11/04 07:38:44;;;;;;;1.77;1.47;;;9.80;59.50;;;;;;5033963;28;20229;-80
2022/11/04 07:41:10;;;;;;;2.47;1.70;;;9.60;51.20;;;;;;5036366;28;20180;-81
2022/11/04 07:43:36;;;;;;;1.60;1.37;;;10.90;37.40;;;;;;5051544;28;20321;-80
2022/11/04 07:46:05;;;;;;;1.83;1.30;;;10.70;15.70;;;;;;5036691;28;20290;-82
2022/11/04 07:48:31;;;;;;;2.40;1.23;;;10.00;4.70;;;;;;5036814;28;20324;-81
2022/11/04 07:50:58;;;;;;;2.47;1.10;;;10.20;1.00;;;;;;5036567;28;20238;-81
2022/11/04 07:53:29;;;;;;;1.57;1.20;;;10.40;1.00;;;;;;5043200;28;20189;-82
2022/11/04 07:55:54;;;;;;;1.30;1.20;;;10.30;1.00;;;;;;5037973;28;20202;-84
2022/11/04 07:58:22;;;;;;;1.30;1.20;;;10.30;1.00;;;;;;5044148;28;20969;-83
2022/11/04 08:00:48;;;;;;;2.23;1.27;;;10.80;1.00;;;;;;5036693;28;20182;-81
2022/11/04 08:03:14;;;;;;;2.80;1.50;;;10.30;1.00;;;;;;5045494;28;20190;-83
2022/11/04 08:05:40;;;;;;;1.93;1.40;;;10.30;1.00;;;;;;5043734;28;20212;-83
2022/11/04 08:08:06;;;;;;;1.63;1.20;;;11.60;1.00;;;;;;5036672;28;20244;-80
2022/11/04 08:10:32;;;;;;;2.10;1.30;;;11.20;1.00;;;;;;5043648;28;20185;-84
2022/11/04 08:12:58;;;;;;;4.33;1.40;;;10.40;1.00;;;;;;5036196;28;20204;-83
2022/11/04 08:15:23;;;;;;;1.83;1.17;;;10.40;1.00;;;;;;5042986;28;20573;-83
2022/11/04 08:17:49;;;;;;;2.33;1.37;;;11.00;1.00;;;;;;5035593;28;20245;-84
2022/11/04 08:20:15;;;;;;;1.63;1.20;;;10.50;1.00;;;;;;5034607;28;20198;-82
2022/11/04 08:22:40;;;;;;;1.73;1.00;;;10.40;1.00;;;;;;5041669;28;20909;-81
2022/11/04 08:25:06;;;;;;;1.50;1.00;;;11.50;1.00;;;;;;5043440;28;20186;-81
2022/11/04 08:27:33;;;;;;;1.13;1.03;;;10.50;1.00;;;;;;5035939;28;20628;-83
2022/11/04 08:29:59;;;;;;;2.13;1.20;;;10.50;1.00;;;;;;5042681;28;20195;-81
2022/11/04 08:32:24;;;;;;;6.67;1.43;;;10.60;1.00;;;;;;5033719;28;20563;-82
2022/11/04 08:34:50;;;;;;;1.37;1.13;;;11.40;1.00;;;;;;5043219;28;20199;-81
2022/11/04 08:37:16;;;;;;;2.40;1.43;;;10.50;1.00;;;;;;5037930;28;20214;-81
2022/11/04 08:39:42;;;;;;;1.20;1.10;;;10.60;1.00;;;;;;5035222;28;20213;-82
2022/11/04 08:42:08;;;;;;;2.53;1.20;;;11.80;1.00;;;;;;5036066;28;20576;-80
2022/11/04 08:44:35;;;;;;;3.07;1.30;;;10.80;1.00;;;;;;5036270;28;20186;-82
2022/11/04 08:47:02;;;;;;;2.10;0.97;;;11.00;1.00;;;;;;5050457;28;20249;-80
2022/11/04 08:49:28;;;;;;;2.50;1.10;;;10.90;1.00;;;;;;5033025;28;20256;-79
2022/11/04 08:51:58;;;;;;;2.25;1.13;;;11.00;1.00;;;;;;5036569;28;20190;-81
2022/11/04 08:54:26;;;;;;;2.58;1.23;;;11.10;1.00;;;;;;5044223;28;20633;-84
2022/11/04 08:56:52;;;;;;;1.40;1.00;;;11.40;1.00;;;;;;5040249;28;20300;-84
2022/11/04 08:59:18;;;;;;;2.28;1.15;;;11.40;1.00;;;;;;5037576;28;20190;-80
2022/11/04 09:01:44;;;;;;;2.23;1.13;;;11.30;1.00;;;;;;5039581;28;20179;-83
2022/11/04 09:04:11;;;;;;;3.13;1.40;;;12.00;1.00;;;;;;5040995;28;20199;-81
2022/11/04 09:06:40;;;;;;;2.97;1.43;;;11.20;1.00;;;;;;5046479;28;20685;-82
2022/11/04 09:09:08;;;;;;;2.58;1.20;;;11.60;1.00;;;;;;5040191;28;20552;-81
2022/11/04 09:11:38;;;;;;;2.00;0.90;;;11.80;1.00;;;;;;5040007;28;20541;-80
2022/11/04 09:14:04;;;;;;;1.90;0.98;;;11.10;1.00;;;;;;5038349;28;21010;-82
2022/11/04 09:16:32;;;;;;;2.40;1.60;;;11.10;1.00;;;;;;5039948;28;20214;-79
2022/11/04 09:18:58;;;;;;;3.85;1.73;;;11.20;1.00;;;;;;5038434;28;20190;-80
2022/11/04 09:21:47;;;;;;;2.43;1.20;;;11.30;1.00;;;;;;5930160;22;20194;-79
2022/11/04 09:34:34;;;;;;;3.63;1.60;;;11.30;1.00;;;;;;5445807;22;20226;-83
2022/11/04 09:37:00;;;;;;;3.03;1.23;;;11.20;1.00;;;;;;5060168;28;20229;-84
2022/11/04 09:39:26;;;;;;;2.77;1.60;;;11.60;1.00;;;;;;5063347;28;20218;-83
2022/11/04 09:42:28;;;;;;;4.53;1.73;;;11.20;1.00;;;;;;5060221;28;20272;-83
2022/11/04 09:45:03;;;;;;;3.85;1.75;;;11.30;1.00;;;;;;5053257;28;20201;-83
2022/11/04 09:47:30;;;;;;;3.63;1.93;;;11.40;1.00;;;;;;5051486;28;20664;-83
2022/11/04 09:50:00;;;;;;;3.83;1.70;;;11.50;1.00;;;;;;5053004;28;20190;-83
2022/11/04 09:52:38;;;;;;;4.00;1.50;;;12.10;1.00;;;;;;5050464;28;20259;-83
2022/11/04 09:55:13;;;;;;;3.65;1.75;;;11.60;1.00;;;;;;5056149;28;20255;-83
2022/11/04 09:57:39;;;;;;;2.60;1.83;;;11.80;1.00;;;;;;5048629;28;20204;-81
2022/11/04 10:00:05;;;;;;;2.75;1.55;;;11.80;1.00;;;;;;5055210;28;20289;-80
2022/11/04 10:02:54;;;;;;;4.95;2.00;;;11.90;1.00;;;;;;5044630;28;20232;-87
2022/11/04 10:05:39;;;;;;;3.00;1.90;;;11.90;1.00;;;;;;5057392;28;20599;-82
2022/11/04 10:08:54;;;;;;;3.45;1.80;;;11.90;1.00;;;;;;5053923;28;20239;-86
2022/11/04 10:11:45;;;;;;;3.70;1.90;;;12.00;1.00;;;;;;5055101;28;20182;-80
2022/11/04 10:14:16;;;;;;;4.70;2.30;;;11.90;1.00;;;;;;5053933;28;20206;-85
2022/11/04 10:16:59;;;;;;;3.80;2.30;;;11.90;1.00;;;;;;5049701;28;20237;-83
2022/11/04 10:19:43;;;;;;;3.65;2.70;;;11.90;1.00;;;;;;5043502;28;20213;-84
2022/11/04 10:22:18;;;;;;;5.68;2.47;;;11.90;1.00;;;;;;5054544;28;20245;-88
2022/11/04 10:24:52;;;;;;;5.55;2.63;;;11.80;1.00;;;;;;5054226;28;20233;-86
2022/11/04 10:27:26;;;;;;;4.68;2.25;;;11.80;1.00;;;;;;5050440;28;20181;-81
2022/11/04 10:30:11;;;;;;;3.83;2.40;;;11.80;1.00;;;;;;5042647;28;20269;-81
2022/11/04 10:32:51;;;;;;;5.55;3.15;;;11.90;1.00;;;;;;5045531;28;20182;-82
2022/11/04 10:35:30;;;;;;;4.53;2.40;;;11.90;1.00;;;;;;5043599;28;20754;-83
2022/11/04 10:38:00;;;;;;;2.78;2.00;;;11.80;1.00;;;;;;5053549;28;20206;-83
2022/11/04 10:40:32;;;;;;;4.53;2.50;;;11.80;1.00;;;;;;5047045;28;20183;-83
2022/11/04 10:42:59;;;;;;;6.80;3.83;;;11.90;1.00;;;;;;5038657;28;20178;-83
2022/11/04 10:45:39;;;;;;;5.53;2.53;;;11.80;1.00;;;;;;5045956;28;20200;-84
2022/11/04 10:48:14;;;;;;;13.50;7.65;;;11.90;1.00;;;;;;5046454;28;20190;-83
2022/11/04 10:50:53;;;;;;;5.72;3.10;;;11.90;1.00;;;;;;5049415;28;20190;-82
2022/11/04 10:53:28;;;;;;;6.87;2.37;;;11.90;1.00;;;;;;5048178;28;20202;-82
2022/11/04 10:56:26;;;;;;;20.20;3.75;;;12.10;1.00;;;;;;5042399;28;20264;-82
2022/11/04 10:58:54;;;;;;;5.10;2.70;;;12.00;1.00;;;;;;5043729;28;20186;-83
2022/11/04 11:01:29;;;;;;;4.40;2.45;;;12.20;1.00;;;;;;5042168;28;20190;-82
2022/11/04 11:03:56;;;;;;;8.10;4.85;;;12.40;1.00;;;;;;5042623;28;20407;-81
2022/11/04 11:06:30;;;;;;;7.50;2.70;;;12.50;1.00;;;;;;5039363;28;20187;-81
2022/11/04 11:09:00;;;;;;;5.10;2.38;;;13.20;1.00;;;;;;5042956;28;20186;-83
2022/11/04 11:11:50;;;;;;;6.15;2.65;;;12.50;1.00;;;;;;5043262;28;20425;-83
2022/11/04 11:14:17;;;;;;;5.43;2.40;;;12.60;1.00;;;;;;5043455;28;20610;-82
2022/11/04 11:16:44;;;;;;;5.55;2.40;;;12.60;1.00;;;;;;5071871;22;20227;-76
2022/11/04 11:19:15;;;;;;;3.70;2.35;;;12.60;1.00;;;;;;5021370;28;20179;-79
2022/11/04 11:21:47;;;;;;;4.25;2.90;;;12.60;1.00;;;;;;5023831;28;20528;-82
2022/11/04 11:24:28;;;;;;;4.70;2.50;;;12.60;1.00;;;;;;5021184;28;20195;-79
2022/11/04 11:26:56;;;;;;;4.43;2.30;;;12.30;1.00;;;;;;5023875;28;20186;-77
2022/11/04 11:29:30;;;;;;;2.88;2.40;;;12.40;1.00;;;;;;5022129;28;20194;-80
2022/11/04 11:31:59;;;;;;;5.95;2.72;;;12.50;1.00;;;;;;5023822;28;20182;-80
2022/11/04 11:34:32;;;;;;;4.50;2.53;;;12.70;1.00;;;;;;5022448;28;20694;-81
2022/11/04 11:37:02;;;;;;;3.95;2.42;;;12.50;1.00;;;;;;5022760;28;20678;-82
2022/11/04 11:39:31;;;;;;;3.42;2.40;;;12.60;1.00;;;;;;5021998;28;20447;-81
2022/11/04 11:41:56;;;;;;;4.68;2.53;;;12.70;1.00;;;;;;5022485;28;20186;-81
2022/11/04 11:44:43;;;;;;;4.53;2.63;;;12.70;1.00;;;;;;5022875;28;20199;-82
2022/11/04 11:47:27;;;;;;;3.25;2.38;;;12.60;1.00;;;;;;5026001;28;20290;-83
2022/11/04 11:50:14;;;;;;;6.88;2.47;;;12.60;1.00;;;;;;5020246;28;20298;-81
2022/11/04 11:52:41;;;;;;;4.30;2.42;;;12.40;1.00;;;;;;5006560;28;20203;-81
2022/11/04 11:55:26;;;;;;;3.38;2.38;;;12.30;1.00;;;;;;5017970;28;20616;-85
2022/11/04 11:58:25;;;;;;;4.40;2.65;;;12.30;1.00;;;;;;5019576;28;20581;-82
2022/11/04 12:01:05;;;;;;;3.63;2.30;;;12.40;1.00;;;;;;5011015;28;20214;-80
2022/11/04 12:03:42;;;;;;;6.28;2.92;;;12.30;1.00;;;;;;5023829;28;20207;-80
2022/11/04 12:06:21;;;;;;;3.17;2.25;;;12.30;1.00;;;;;;5020473;28;20170;-81
2022/11/04 12:09:05;;;;;;;5.13;2.35;;;12.30;1.00;;;;;;5020911;28;20669;-81
2022/11/04 12:12:03;;;;;;;3.90;2.20;;;12.30;1.00;;;;;;5023905;28;20189;-81
2022/11/04 12:15:00;;;;;;;11.07;2.88;;;12.50;1.00;;;;;;5023119;28;20206;-81
2022/11/04 12:17:44;;;;;;;4.93;2.35;;;12.40;1.00;;;;;;5023551;28;20214;-86
2022/11/04 12:20:25;;;;;;;4.55;2.30;;;12.40;1.00;;;;;;5023143;28;20432;-82
2022/11/04 12:22:51;;;;;;;5.82;2.78;;;12.50;1.00;;;;;;5021495;28;20213;-80
2022/11/04 12:25:52;;;;;;;4.57;3.42;;;12.50;1.00;;;;;;5019163;28;20238;-81
2022/11/04 12:28:58;;;;;;;10.50;4.70;;;12.60;1.00;;;;;;5012164;28;20430;-81
2022/11/04 12:31:39;;;;;;;8.55;5.88;;;12.70;1.00;;;;;;5019171;28;20654;-82
2022/11/04 12:34:49;;;;;;;10.18;6.68;;;12.70;1.00;;;;;;5046566;22;20229;-82
2022/11/04 12:37:27;;;;;;;10.52;5.22;;;12.70;1.00;;;;;;5062850;28;20584;-82
2022/11/04 12:40:15;;;;;;;15.43;8.65;;;13.00;1.00;;;;;;5050300;28;20672;-82
2022/11/04 12:42:50;;;;;;;9.30;6.25;;;12.90;1.00;;;;;;5056786;28;20189;-84
2022/11/04 12:45:54;;;;;;;11.88;7.10;;;13.00;1.00;;;;;;5047056;28;20201;-82
2022/11/04 12:48:55;;;;;;;6.97;4.57;;;12.80;1.00;;;;;;5065019;22;20199;-82
2022/11/04 12:51:45;;;;;;;8.88;5.00;;;12.80;1.00;;;;;;5028118;28;20201;-83
2022/11/04 12:54:41;;;;;;;9.43;5.82;;;12.80;1.00;;;;;;5027483;28;20213;-83
2022/11/04 12:57:24;;;;;;;8.02;5.22;;;12.60;1.00;;;;;;4994964;28;20226;-84
2022/11/04 13:00:08;;;;;;;8.43;5.63;;;12.60;1.00;;;;;;5017649;28;20187;-84
2022/11/04 13:03:10;;;;;;;5.88;4.30;;;12.50;1.00;;;;;;5014158;28;20255;-83
2022/11/04 13:05:39;;;;;;;5.90;3.88;;;12.60;1.00;;;;;;5010276;28;20217;-84
2022/11/04 13:08:07;;;;;;;8.63;4.50;;;12.50;1.00;;;;;;5015519;28;20230;-85
2022/11/04 13:10:39;;;;;;;7.70;3.83;;;12.50;1.00;;;;;;5020629;28;20429;-83
2022/11/04 13:13:07;;;;;;;5.60;3.50;;;12.40;1.00;;;;;;5019833;28;20213;-83
2022/11/04 13:15:44;;;;;;;7.20;3.67;;;12.20;1.00;;;;;;5022681;28;20183;-82
2022/11/04 13:18:18;;;;;;;5.20;3.00;;;12.00;1.00;;;;;;5032000;28;20207;-85
2022/11/04 13:21:02;;;;;;;5.35;4.20;;;11.90;1.00;;;;;;5038488;28;20634;-84
2022/11/04 13:23:38;;;;;;;6.40;4.20;;;11.90;1.00;;;;;;5032211;28;20211;-83
2022/11/04 13:26:06;;;;;;;4.38;2.72;;;11.90;1.00;;;;;;5019879;28;20196;-82
2022/11/04 13:28:31;;;;;;;6.95;3.00;;;11.90;1.00;;;;;;5020477;28;20222;-83
2022/11/04 13:31:06;;;;;;;7.75;3.20;;;12.00;1.00;;;;;;5030082;28;20546;-84
2022/11/04 13:33:50;;;;;;;5.53;2.90;;;12.20;1.00;;;;;;5021596;28;20306;-83
2022/11/04 13:36:32;;;;;;;5.80;2.60;;;12.40;1.00;;;;;;5012297;28;20661;-83
2022/11/04 13:39:05;;;;;;;6.95;2.40;;;12.40;1.00;;;;;;5017420;28;20182;-82
2022/11/04 13:41:58;;;;;;;4.60;2.40;;;12.40;1.00;;;;;;5019491;28;20753;-82
2022/11/04 13:44:27;;;;;;;3.75;2.03;;;12.30;1.00;;;;;;5018415;28;20200;-81
2022/11/04 13:46:57;;;;;;;4.63;2.75;;;12.20;1.00;;;;;;5033407;28;20867;-82
2022/11/04 13:49:32;;;;;;;7.63;2.55;;;12.20;1.00;;;;;;5017374;28;20198;-81
2022/11/04 13:52:13;;;;;;;3.97;2.40;;;12.30;1.00;;;;;;5060316;22;20280;-83
2022/11/04 13:54:54;;;;;;;4.53;2.60;;;12.10;1.00;;;;;;5019349;28;20241;-82
2022/11/04 13:57:22;;;;;;;3.13;2.60;;;12.10;1.00;;;;;;5013384;28;20455;-81
2022/11/04 14:00:12;;;;;;;4.15;2.20;;;12.20;1.00;;;;;;5015031;28;20571;-82
2022/11/04 14:02:49;;;;;;;3.85;2.58;;;12.20;1.00;;;;;;5006303;28;20191;-79